sensor_id;sensor_type;location;lat;lon;timestamp;pressure;altitude;pressure_sealevel;temperature;humidity
9899;BME280;4988;49.238;6.698;2024-03-23T00:55:32;98449.53;;;10.70;100.00
9899;BME280;4988;49.238;6.698;2024-03-23T00:57:57;98449.69;;;10.67;100.00
9899;BME280;4988;49.238;6.698;2024-03-23T01:00:23;98449.78;;;10.65;100.00
9899;BME280;4988;49.238;6.698;2024-03-23T01:02:48;98451.53;;;10.66;100.00
9899;BME280;4988;49.238;6.698;2024-03-23T01:05:14;98449.53;;;10.70;100.00
9899;BME280;4988;49.238;6.698;2024-03-23T01:07:39;98458.66;;;10.66;100.00
9899;BME280;4988;49.238;6.698;2024-03-23T01:10:04;98443.72;;;10.63;100.00
9899;BME280;4988;49.238;6.698;2024-03-23T01:12:30;98440.09;;;10.64;100.00
9899;BME280;4988;49.238;6.698;2024-03-23T01:14:55;98442.00;;;10.62;100.00
9899;BME280;4988;49.238;6.698;2024-03-23T01:17:21;98443.88;;;10.60;100.00
9899;BME280;4988;49.238;6.698;2024-03-23T01:19:46;98436.25;;;10.54;100.00
9899;BME280;4988;49.238;6.698;2024-03-23T01:22:11;98448.72;;;10.53;100.00
9899;BME280;4988;49.238;6.698;2024-03-23T01:24:38;98438.81;;;10.55;100.00
9899;BME280;4988;49.238;6.698;2024-03-23T01:27:03;98447.16;;;10.49;100.00
9899;BME280;4988;49.238;6.698;2024-03-23T01:29:29;98444.69;;;10.46;100.00
9899;BME280;4988;49.238;6.698;2024-03-23T01:31:54;98435.09;;;10.43;100.00
9899;BME280;4988;49.238;6.698;2024-03-23T01:34:19;98430.00;;;10.39;100.00
9899;BME280;4988;49.238;6.698;2024-03-23T01:36:46;98434.41;;;10.40;100.00
9899;BME280;4988;49.238;6.698;2024-03-23T01:39:11;98445.19;;;10.37;100.00
9899;BME280;4988;49.238;6.698;2024-03-23T01:41:37;98443.53;;;10.34;100.00
9899;BME280;4988;49.238;6.698;2024-03-23T01:44:05;98440.75;;;10.37;100.00
9899;BME280;4988;49.238;6.698;2024-03-23T01:46:33;98441.81;;;10.33;100.00
9899;BME280;4988;49.238;6.698;2024-03-23T01:48:59;98444.56;;;10.32;100.00
9899;BME280;4988;49.238;6.698;2024-03-23T01:51:24;98446.63;;;10.26;100.00
9899;BME280;4988;49.238;6.698;2024-03-23T01:53:50;98447.72;;;10.22;100.00
9899;BME280;4988;49.238;6.698;2024-03-23T01:56:16;98443.53;;;10.18;100.00
9899;BME280;4988;49.238;6.698;2024-03-23T01:58:41;98434.88;;;10.14;100.00
9899;BME280;4988;49.238;6.698;2024-03-23T02:01:06;98417.28;;;10.12;100.00
9899;BME280;4988;49.238;6.698;2024-03-23T02:03:32;98415.75;;;10.08;100.00
9899;BME280;4988;49.238;6.698;2024-03-23T02:05:57;98414.47;;;9.99;100.00
9899;BME280;4988;49.238;6.698;2024-03-23T02:08:23;98411.81;;;9.99;100.00
9899;BME280;4988;49.238;6.698;2024-03-23T02:10:49;98409.22;;;9.97;100.00
9899;BME280;4988;49.238;6.698;2024-03-23T02:13:15;98416.44;;;9.95;100.00
9899;BME280;4988;49.238;6.698;2024-03-23T02:15:41;98417.03;;;10.01;100.00
9899;BME280;4988;49.238;6.698;2024-03-23T02:18:07;98420.03;;;9.94;100.00
9899;BME280;4988;49.238;6.698;2024-03-23T02:20:33;98411.88;;;9.97;100.00
9899;BME280;4988;49.238;6.698;2024-03-23T02:22:59;98421.91;;;9.92;100.00
9899;BME280;4988;49.238;6.698;2024-03-23T02:25:24;98418.47;;;9.90;100.00
9899;BME280;4988;49.238;6.698;2024-03-23T02:27:49;98413.25;;;9.89;100.00
9899;BME280;4988;49.238;6.698;2024-03-23T02:30:15;98421.31;;;9.87;100.00
9899;BME280;4988;49.238;6.698;2024-03-23T02:32:40;98412.81;;;9.80;100.00
9899;BME280;4988;49.238;6.698;2024-03-23T02:35:06;98419.00;;;9.81;100.00
9899;BME280;4988;49.238;6.698;2024-03-23T02:37:31;98420.03;;;9.78;100.00
9899;BME280;4988;49.238;6.698;2024-03-23T02:39:58;98405.50;;;9.68;100.00
9899;BME280;4988;49.238;6.698;2024-03-23T02:42:23;98430.72;;;9.61;100.00
9899;BME280;4988;49.238;6.698;2024-03-23T02:44:48;98430.03;;;9.57;100.00
9899;BME280;4988;49.238;6.698;2024-03-23T02:47:14;98430.59;;;9.46;100.00
9899;BME280;4988;49.238;6.698;2024-03-23T02:49:39;98440.06;;;9.34;100.00
9899;BME280;4988;49.238;6.698;2024-03-23T02:52:04;98433.34;;;9.27;100.00
9899;BME280;4988;49.238;6.698;2024-03-23T02:54:30;98448.03;;;9.17;100.00
9899;BME280;4988;49.238;6.698;2024-03-23T02:56:55;98445.41;;;8.99;100.00
9899;BME280;4988;49.238;6.698;2024-03-23T02:59:20;98461.25;;;9.01;100.00
9899;BME280;4988;49.238;6.698;2024-03-23T03:01:46;98462.66;;;8.91;100.00
9899;BME280;4988;49.238;6.698;2024-03-23T03:04:11;98470.66;;;8.72;100.00
9899;BME280;4988;49.238;6.698;2024-03-23T03:06:36;98469.63;;;8.57;100.00
9899;BME280;4988;49.238;6.698;2024-03-23T03:09:02;98465.66;;;8.65;100.00
9899;BME280;4988;49.238;6.698;2024-03-23T03:11:27;98476.16;;;8.49;100.00
9899;BME280;4988;49.238;6.698;2024-03-23T03:13:53;98470.16;;;8.27;100.00
9899;BME280;4988;49.238;6.698;2024-03-23T03:16:18;98469.28;;;8.26;100.00
9899;BME280;4988;49.238;6.698;2024-03-23T03:18:44;98491.41;;;8.25;100.00
9899;BME280;4988;49.238;6.698;2024-03-23T03:21:12;98495.00;;;8.24;100.00
9899;BME280;4988;49.238;6.698;2024-03-23T03:23:37;98484.63;;;8.19;100.00
9899;BME280;4988;49.238;6.698;2024-03-23T03:26:04;98487.81;;;8.26;100.00
9899;BME280;4988;49.238;6.698;2024-03-23T03:28:30;98486.19;;;8.24;100.00
9899;BME280;4988;49.238;6.698;2024-03-23T03:30:56;98484.16;;;8.29;100.00
9899;BME280;4988;49.238;6.698;2024-03-23T03:33:22;98495.50;;;8.32;100.00
9899;BME280;4988;49.238;6.698;2024-03-23T03:35:47;98494.06;;;8.25;100.00
9899;BME280;4988;49.238;6.698;2024-03-23T03:38:13;98491.78;;;8.17;100.00
9899;BME280;4988;49.238;6.698;2024-03-23T03:40:38;98494.22;;;8.22;100.00
9899;BME280;4988;49.238;6.698;2024-03-23T03:43:03;98499.22;;;8.09;100.00
9899;BME280;4988;49.238;6.698;2024-03-23T03:45:29;98487.34;;;8.18;100.00
9899;BME280;4988;49.238;6.698;2024-03-23T03:47:54;98478.72;;;8.13;100.00
9899;BME280;4988;49.238;6.698;2024-03-23T03:50:21;98472.72;;;8.09;100.00
9899;BME280;4988;49.238;6.698;2024-03-23T03:52:46;98477.53;;;8.01;100.00
9899;BME280;4988;49.238;6.698;2024-03-23T03:55:13;98486.19;;;8.04;100.00
9899;BME280;4988;49.238;6.698;2024-03-23T03:57:39;98500.75;;;7.96;100.00
9899;BME280;4988;49.238;6.698;2024-03-23T04:00:05;98511.38;;;7.94;100.00
9899;BME280;4988;49.238;6.698;2024-03-23T04:02:31;98510.97;;;8.03;100.00
9899;BME280;4988;49.238;6.698;2024-03-23T04:04:56;98503.16;;;8.00;100.00
9899;BME280;4988;49.238;6.698;2024-03-23T04:07:22;98502.38;;;7.98;100.00
9899;BME280;4988;49.238;6.698;2024-03-23T04:09:48;98498.13;;;7.94;100.00
9899;BME280;4988;49.238;6.698;2024-03-23T04:12:14;98498.78;;;7.99;100.00
9899;BME280;4988;49.238;6.698;2024-03-23T04:14:40;98509.78;;;8.11;100.00
9899;BME280;4988;49.238;6.698;2024-03-23T04:17:06;98510.06;;;8.04;100.00
9899;BME280;4988;49.238;6.698;2024-03-23T04:19:31;98504.72;;;7.85;100.00
9899;BME280;4988;49.238;6.698;2024-03-23T04:21:57;98513.47;;;7.87;100.00
9899;BME280;4988;49.238;6.698;2024-03-23T04:24:22;98513.69;;;7.83;100.00
9899;BME280;4988;49.238;6.698;2024-03-23T04:26:48;98519.91;;;7.82;100.00
9899;BME280;4988;49.238;6.698;2024-03-23T04:29:13;98524.66;;;7.73;100.00
9899;BME280;4988;49.238;6.698;2024-03-23T04:31:38;98532.97;;;7.66;100.00
9899;BME280;4988;49.238;6.698;2024-03-23T04:34:04;98538.88;;;7.72;100.00
9899;BME280;4988;49.238;6.698;2024-03-23T04:36:29;98530.03;;;7.72;100.00
9899;BME280;4988;49.238;6.698;2024-03-23T04:38:56;98532.38;;;7.59;100.00
9899;BME280;4988;49.238;6.698;2024-03-23T04:41:22;98534.50;;;7.51;100.00
9899;BME280;4988;49.238;6.698;2024-03-23T04:43:47;98538.88;;;7.52;100.00
9899;BME280;4988;49.238;6.698;2024-03-23T04:46:12;98534.13;;;7.60;100.00
9899;BME280;4988;49.238;6.698;2024-03-23T04:48:38;98537.81;;;7.56;100.00
9899;BME280;4988;49.238;6.698;2024-03-23T04:51:04;98545.16;;;7.49;100.00
9899;BME280;4988;49.238;6.698;2024-03-23T04:53:29;98549.47;;;7.52;100.00
9899;BME280;4988;49.238;6.698;2024-03-23T04:55:55;98547.88;;;7.48;100.00
9899;BME280;4988;49.238;6.698;2024-03-23T04:58:22;98562.09;;;7.45;100.00
9899;BME280;4988;49.238;6.698;2024-03-23T05:00:52;98555.69;;;7.51;100.00
9899;BME280;4988;49.238;6.698;2024-03-23T05:03:17;98569.53;;;7.57;100.00
9899;BME280;4988;49.238;6.698;2024-03-23T05:05:44;98585.28;;;7.61;100.00
9899;BME280;4988;49.238;6.698;2024-03-23T05:08:09;98580.59;;;7.47;100.00
9899;BME280;4988;49.238;6.698;2024-03-23T05:10:35;98581.06;;;7.56;100.00
9899;BME280;4988;49.238;6.698;2024-03-23T05:13:00;98566.28;;;7.51;100.00
9899;BME280;4988;49.238;6.698;2024-03-23T05:15:26;98588.38;;;7.50;100.00
9899;BME280;4988;49.238;6.698;2024-03-23T05:17:52;98606.06;;;7.49;100.00
9899;BME280;4988;49.238;6.698;2024-03-23T05:20:18;98598.31;;;7.45;100.00
9899;BME280;4988;49.238;6.698;2024-03-23T05:22:44;98590.22;;;7.27;100.00
9899;BME280;4988;49.238;6.698;2024-03-23T05:25:09;98598.00;;;7.32;100.00
9899;BME280;4988;49.238;6.698;2024-03-23T05:27:35;98602.28;;;7.34;100.00
9899;BME280;4988;49.238;6.698;2024-03-23T05:30:01;98604.25;;;7.29;100.00
9899;BME280;4988;49.238;6.698;2024-03-23T05:32:27;98616.81;;;7.24;100.00
9899;BME280;4988;49.238;6.698;2024-03-23T05:34:53;98621.25;;;7.23;100.00
9899;BME280;4988;49.238;6.698;2024-03-23T05:37:25;98632.28;;;7.13;100.00
9899;BME280;4988;49.238;6.698;2024-03-23T05:39:51;98629.53;;;7.16;100.00
9899;BME280;4988;49.238;6.698;2024-03-23T05:42:17;98640.34;;;7.10;100.00
9899;BME280;4988;49.238;6.698;2024-03-23T05:44:46;98633.34;;;7.08;100.00
9899;BME280;4988;49.238;6.698;2024-03-23T05:47:12;98644.03;;;7.05;100.00
9899;BME280;4988;49.238;6.698;2024-03-23T05:49:42;98655.78;;;6.98;100.00
9899;BME280;4988;49.238;6.698;2024-03-23T05:52:08;98649.94;;;6.90;100.00
9899;BME280;4988;49.238;6.698;2024-03-23T05:54:34;98660.63;;;6.87;100.00
9899;BME280;4988;49.238;6.698;2024-03-23T05:57:00;98659.81;;;6.85;100.00
9899;BME280;4988;49.238;6.698;2024-03-23T05:59:25;98671.84;;;6.94;100.00
9899;BME280;4988;49.238;6.698;2024-03-23T06:01:52;98668.16;;;6.98;100.00
9899;BME280;4988;49.238;6.698;2024-03-23T06:04:17;98673.31;;;7.01;100.00
9899;BME280;4988;49.238;6.698;2024-03-23T06:06:43;98683.91;;;7.01;100.00
9899;BME280;4988;49.238;6.698;2024-03-23T06:09:08;98694.69;;;6.96;100.00
9899;BME280;4988;49.238;6.698;2024-03-23T06:11:33;98696.28;;;7.00;100.00
9899;BME280;4988;49.238;6.698;2024-03-23T06:13:59;98704.38;;;6.96;100.00
9899;BME280;4988;49.238;6.698;2024-03-23T06:16:24;98705.19;;;6.98;100.00
9899;BME280;4988;49.238;6.698;2024-03-23T06:18:52;98695.47;;;6.98;100.00
9899;BME280;4988;49.238;6.698;2024-03-23T06:21:18;98701.13;;;6.89;100.00
9899;BME280;4988;49.238;6.698;2024-03-23T06:23:44;98712.56;;;6.89;100.00
9899;BME280;4988;49.238;6.698;2024-03-23T06:26:19;98712.22;;;6.99;100.00
9899;BME280;4988;49.238;6.698;2024-03-23T06:28:47;98722.16;;;6.92;100.00
9899;BME280;4988;49.238;6.698;2024-03-23T06:31:13;98723.66;;;6.99;100.00
9899;BME280;4988;49.238;6.698;2024-03-23T06:33:38;98728.13;;;6.97;100.00
9899;BME280;4988;49.238;6.698;2024-03-23T06:36:05;98734.53;;;6.91;100.00
9899;BME280;4988;49.238;6.698;2024-03-23T06:38:30;98737.19;;;6.91;99.13
9899;BME280;4988;49.238;6.698;2024-03-23T06:40:56;98756.56;;;6.92;99.01
9899;BME280;4988;49.238;6.698;2024-03-23T06:43:21;98752.19;;;6.91;98.84
9899;BME280;4988;49.238;6.698;2024-03-23T06:45:53;98751.16;;;6.95;98.62
9899;BME280;4988;49.238;6.698;2024-03-23T06:48:19;98757.97;;;7.02;99.39
9899;BME280;4988;49.238;6.698;2024-03-23T06:50:45;98764.63;;;6.89;99.26
9899;BME280;4988;49.238;6.698;2024-03-23T06:53:11;98773.25;;;6.94;100.00
9899;BME280;4988;49.238;6.698;2024-03-23T06:55:37;98774.84;;;6.98;100.00
9899;BME280;4988;49.238;6.698;2024-03-23T06:58:02;98782.47;;;7.07;100.00
9899;BME280;4988;49.238;6.698;2024-03-23T07:00:28;98776.66;;;6.98;99.51
9899;BME280;4988;49.238;6.698;2024-03-23T07:02:53;98793.03;;;6.84;100.00
9899;BME280;4988;49.238;6.698;2024-03-23T07:05:18;98787.44;;;6.68;100.00
9899;BME280;4988;49.238;6.698;2024-03-23T07:07:44;98786.78;;;6.61;100.00
9899;BME280;4988;49.238;6.698;2024-03-23T07:10:10;98800.69;;;6.66;100.00
9899;BME280;4988;49.238;6.698;2024-03-23T07:12:35;98797.59;;;6.55;100.00
9899;BME280;4988;49.238;6.698;2024-03-23T07:15:00;98805.63;;;6.52;100.00
9899;BME280;4988;49.238;6.698;2024-03-23T07:17:26;98791.25;;;6.59;100.00
9899;BME280;4988;49.238;6.698;2024-03-23T07:19:51;98801.09;;;6.55;100.00
9899;BME280;4988;49.238;6.698;2024-03-23T07:22:17;98808.06;;;6.58;100.00
9899;BME280;4988;49.238;6.698;2024-03-23T07:24:43;98815.34;;;6.51;100.00
9899;BME280;4988;49.238;6.698;2024-03-23T07:27:09;98819.34;;;6.11;100.00
9899;BME280;4988;49.238;6.698;2024-03-23T07:29:35;98832.78;;;6.03;100.00
9899;BME280;4988;49.238;6.698;2024-03-23T07:32:01;98836.88;;;5.85;100.00
9899;BME280;4988;49.238;6.698;2024-03-23T07:34:26;98840.66;;;5.76;100.00
9899;BME280;4988;49.238;6.698;2024-03-23T07:36:52;98850.75;;;5.63;100.00
9899;BME280;4988;49.238;6.698;2024-03-23T07:39:17;98871.03;;;5.61;100.00
9899;BME280;4988;49.238;6.698;2024-03-23T07:41:45;98876.88;;;5.43;100.00
9899;BME280;4988;49.238;6.698;2024-03-23T07:44:11;98889.13;;;5.45;100.00
9899;BME280;4988;49.238;6.698;2024-03-23T07:46:36;98882.22;;;5.41;100.00
9899;BME280;4988;49.238;6.698;2024-03-23T07:49:04;98859.47;;;5.37;100.00
9899;BME280;4988;49.238;6.698;2024-03-23T07:51:29;98863.47;;;5.51;100.00
9899;BME280;4988;49.238;6.698;2024-03-23T07:53:55;98885.44;;;5.20;100.00
9899;BME280;4988;49.238;6.698;2024-03-23T07:56:20;98883.59;;;5.23;100.00
9899;BME280;4988;49.238;6.698;2024-03-23T07:58:47;98869.38;;;5.29;100.00
9899;BME280;4988;49.238;6.698;2024-03-23T08:01:14;98864.63;;;5.10;100.00
9899;BME280;4988;49.238;6.698;2024-03-23T08:03:42;98877.63;;;5.17;100.00
9899;BME280;4988;49.238;6.698;2024-03-23T08:06:18;98879.19;;;5.24;100.00
9899;BME280;4988;49.238;6.698;2024-03-23T08:08:46;98874.59;;;5.30;100.00
9899;BME280;4988;49.238;6.698;2024-03-23T08:11:12;98882.97;;;5.45;100.00
9899;BME280;4988;49.238;6.698;2024-03-23T08:13:41;98880.81;;;5.58;100.00
9899;BME280;4988;49.238;6.698;2024-03-23T08:16:07;98874.25;;;5.73;100.00
9899;BME280;4988;49.238;6.698;2024-03-23T08:18:34;98871.78;;;5.95;100.00
9899;BME280;4988;49.238;6.698;2024-03-23T08:21:06;98879.19;;;6.12;100.00
9899;BME280;4988;49.238;6.698;2024-03-23T08:23:33;98878.03;;;6.21;100.00
9899;BME280;4988;49.238;6.698;2024-03-23T08:26:01;98881.34;;;6.27;100.00
9899;BME280;4988;49.238;6.698;2024-03-23T08:28:27;98875.44;;;6.46;100.00
9899;BME280;4988;49.238;6.698;2024-03-23T08:30:53;98872.53;;;6.54;100.00
9899;BME280;4988;49.238;6.698;2024-03-23T08:33:19;98871.09;;;6.70;100.00
9899;BME280;4988;49.238;6.698;2024-03-23T08:35:54;98875.28;;;6.78;100.00
9899;BME280;4988;49.238;6.698;2024-03-23T08:38:21;98871.91;;;6.72;100.00
9899;BME280;4988;49.238;6.698;2024-03-23T08:40:46;98866.78;;;6.68;100.00
9899;BME280;4988;49.238;6.698;2024-03-23T08:43:11;98873.78;;;6.69;100.00
9899;BME280;4988;49.238;6.698;2024-03-23T08:45:36;98879.53;;;6.82;100.00
9899;BME280;4988;49.238;6.698;2024-03-23T08:48:02;98876.03;;;6.81;100.00
9899;BME280;4988;49.238;6.698;2024-03-23T08:50:27;98881.38;;;7.05;100.00
9899;BME280;4988;49.238;6.698;2024-03-23T08:52:53;98880.38;;;7.07;100.00
9899;BME280;4988;49.238;6.698;2024-03-23T08:55:18;98887.03;;;6.94;100.00
9899;BME280;4988;49.238;6.698;2024-03-23T08:57:43;98883.88;;;7.08;100.00
9899;BME280;4988;49.238;6.698;2024-03-23T09:00:09;98884.53;;;7.15;100.00
9899;BME280;4988;49.238;6.698;2024-03-23T09:02:36;98890.84;;;7.11;100.00
9899;BME280;4988;49.238;6.698;2024-03-23T09:05:02;98889.31;;;7.29;100.00
9899;BME280;4988;49.238;6.698;2024-03-23T09:07:30;98892.69;;;7.57;100.00
9899;BME280;4988;49.238;6.698;2024-03-23T09:09:56;98893.78;;;7.52;100.00
9899;BME280;4988;49.238;6.698;2024-03-23T09:12:28;98892.50;;;7.62;100.00
9899;BME280;4988;49.238;6.698;2024-03-23T09:14:54;98884.13;;;7.73;98.58
9899;BME280;4988;49.238;6.698;2024-03-23T09:17:19;98885.94;;;7.72;97.31
9899;BME280;4988;49.238;6.698;2024-03-23T09:19:44;98892.72;;;7.80;99.50
9899;BME280;4988;49.238;6.698;2024-03-23T09:22:10;98886.84;;;7.71;94.86
9899;BME280;4988;49.238;6.698;2024-03-23T09:24:35;98885.69;;;7.79;96.86
9899;BME280;4988;49.238;6.698;2024-03-23T09:27:00;98891.53;;;7.87;95.84
9899;BME280;4988;49.238;6.698;2024-03-23T09:29:26;98892.00;;;7.98;96.19
9899;BME280;4988;49.238;6.698;2024-03-23T09:31:51;98871.06;;;7.91;90.19
9899;BME280;4988;49.238;6.698;2024-03-23T09:34:19;98872.16;;;8.09;91.48
9899;BME280;4988;49.238;6.698;2024-03-23T09:36:45;98880.09;;;8.09;89.42
9899;BME280;4988;49.238;6.698;2024-03-23T09:39:10;98866.09;;;8.05;88.03
9899;BME280;4988;49.238;6.698;2024-03-23T09:41:36;98870.59;;;8.25;87.92
9899;BME280;4988;49.238;6.698;2024-03-23T09:44:01;98862.84;;;8.20;86.12
9899;BME280;4988;49.238;6.698;2024-03-23T09:46:27;98845.56;;;8.10;82.98
9899;BME280;4988;49.238;6.698;2024-03-23T09:48:55;98844.53;;;8.35;83.67
9899;BME280;4988;49.238;6.698;2024-03-23T09:51:21;98840.84;;;8.61;82.00
9899;BME280;4988;49.238;6.698;2024-03-23T09:53:46;98836.03;;;8.90;83.44
9899;BME280;4988;49.238;6.698;2024-03-23T09:56:11;98844.00;;;8.69;81.31
9899;BME280;4988;49.238;6.698;2024-03-23T09:58:37;98863.00;;;8.60;80.21
9899;BME280;4988;49.238;6.698;2024-03-23T10:01:02;98877.88;;;7.98;86.72
9899;BME280;4988;49.238;6.698;2024-03-23T10:03:28;98889.75;;;7.42;88.91
9899;BME280;4988;49.238;6.698;2024-03-23T10:06:03;98880.50;;;6.79;90.10
9899;BME280;4988;49.238;6.698;2024-03-23T10:08:30;98884.38;;;6.94;93.89
9899;BME280;4988;49.238;6.698;2024-03-23T10:10:56;98872.88;;;6.95;95.43
9899;BME280;4988;49.238;6.698;2024-03-23T10:13:28;98869.13;;;7.01;94.39
9899;BME280;4988;49.238;6.698;2024-03-23T10:15:58;98874.44;;;7.01;96.28
9899;BME280;4988;49.238;6.698;2024-03-23T10:18:24;98862.09;;;7.25;98.29
9899;BME280;4988;49.238;6.698;2024-03-23T10:20:52;98868.19;;;7.51;99.69
9899;BME280;4988;49.238;6.698;2024-03-23T10:23:17;98860.19;;;7.52;98.87
9899;BME280;4988;49.238;6.698;2024-03-23T10:25:43;98846.16;;;7.50;96.34
9899;BME280;4988;49.238;6.698;2024-03-23T10:28:09;98852.25;;;7.52;92.92
9899;BME280;4988;49.238;6.698;2024-03-23T10:30:35;98841.47;;;7.57;93.74
9899;BME280;4988;49.238;6.698;2024-03-23T10:33:12;98839.41;;;7.65;92.62
9899;BME280;4988;49.238;6.698;2024-03-23T10:35:38;98843.47;;;7.74;93.76
9899;BME280;4988;49.238;6.698;2024-03-23T10:38:07;98848.13;;;7.67;89.57
9899;BME280;4988;49.238;6.698;2024-03-23T10:40:36;98844.69;;;7.65;90.86
9899;BME280;4988;49.238;6.698;2024-03-23T10:43:03;98831.28;;;7.92;90.65
9899;BME280;4988;49.238;6.698;2024-03-23T10:45:30;98832.31;;;7.88;86.56
9899;BME280;4988;49.238;6.698;2024-03-23T10:47:56;98826.00;;;7.92;84.61
9899;BME280;4988;49.238;6.698;2024-03-23T10:50:22;98841.66;;;7.98;84.37
9899;BME280;4988;49.238;6.698;2024-03-23T10:52:48;98855.31;;;7.87;85.07
9899;BME280;4988;49.238;6.698;2024-03-23T10:55:17;98888.09;;;6.88;93.39
9899;BME280;4988;49.238;6.698;2024-03-23T10:57:50;98901.16;;;6.14;100.00
9899;BME280;4988;49.238;6.698;2024-03-23T11:00:16;98904.28;;;5.99;100.00
9899;BME280;4988;49.238;6.698;2024-03-23T11:02:42;98912.41;;;5.91;100.00
9899;BME280;4988;49.238;6.698;2024-03-23T11:05:30;98913.53;;;6.14;100.00
9899;BME280;4988;49.238;6.698;2024-03-23T11:07:56;98916.53;;;6.30;100.00
9899;BME280;4988;49.238;6.698;2024-03-23T11:10:31;98917.41;;;6.57;100.00
9899;BME280;4988;49.238;6.698;2024-03-23T11:13:09;98911.78;;;6.66;100.00
9899;BME280;4988;49.238;6.698;2024-03-23T11:15:43;98926.09;;;6.87;100.00
9899;BME280;4988;49.238;6.698;2024-03-23T11:18:08;98935.78;;;6.87;100.00
9899;BME280;4988;49.238;6.698;2024-03-23T11:20:37;98930.13;;;6.46;100.00
9899;BME280;4988;49.238;6.698;2024-03-23T11:23:02;98914.97;;;5.94;100.00
9899;BME280;4988;49.238;6.698;2024-03-23T11:25:28;98923.94;;;5.88;100.00
9899;BME280;4988;49.238;6.698;2024-03-23T11:27:56;98921.38;;;5.55;100.00
9899;BME280;4988;49.238;6.698;2024-03-23T11:30:23;98920.16;;;5.37;100.00
9899;BME280;4988;49.238;6.698;2024-03-23T11:32:50;98922.53;;;5.46;100.00
9899;BME280;4988;49.238;6.698;2024-03-23T11:35:38;98915.16;;;5.58;100.00
9899;BME280;4988;49.238;6.698;2024-03-23T11:40:38;98900.78;;;5.68;100.00
9899;BME280;4988;49.238;6.698;2024-03-23T11:43:05;98895.03;;;5.84;100.00
9899;BME280;4988;49.238;6.698;2024-03-23T11:45:36;98887.50;;;6.01;100.00
9899;BME280;4988;49.238;6.698;2024-03-23T11:48:05;98884.41;;;6.15;100.00
9899;BME280;4988;49.238;6.698;2024-03-23T11:50:31;98896.44;;;6.24;100.00
9899;BME280;4988;49.238;6.698;2024-03-23T11:55:48;98905.94;;;6.56;100.00
9899;BME280;4988;49.238;6.698;2024-03-23T11:58:14;98923.53;;;6.57;100.00
9899;BME280;4988;49.238;6.698;2024-03-23T12:00:40;98913.69;;;6.36;100.00
9899;BME280;4988;49.238;6.698;2024-03-23T12:03:05;98911.44;;;5.93;100.00
9899;BME280;4988;49.238;6.698;2024-03-23T12:05:32;98905.16;;;5.99;100.00
9899;BME280;4988;49.238;6.698;2024-03-23T12:08:17;98889.72;;;5.84;100.00
9899;BME280;4988;49.238;6.698;2024-03-23T12:10:50;98883.53;;;5.85;100.00
9899;BME280;4988;49.238;6.698;2024-03-23T12:13:22;98879.09;;;5.87;100.00
9899;BME280;4988;49.238;6.698;2024-03-23T12:15:50;98882.72;;;6.13;100.00
9899;BME280;4988;49.238;6.698;2024-03-23T12:18:16;98862.44;;;6.40;100.00
9899;BME280;4988;49.238;6.698;2024-03-23T12:20:42;98860.19;;;6.54;100.00
9899;BME280;4988;49.238;6.698;2024-03-23T12:23:11;98866.78;;;6.68;100.00
9899;BME280;4988;49.238;6.698;2024-03-23T12:25:38;98851.19;;;6.85;100.00
9899;BME280;4988;49.238;6.698;2024-03-23T12:28:05;98847.22;;;6.97;100.00
9899;BME280;4988;49.238;6.698;2024-03-23T12:30:39;98844.47;;;7.24;100.00
9899;BME280;4988;49.238;6.698;2024-03-23T12:33:04;98834.81;;;7.47;99.92
9899;BME280;4988;49.238;6.698;2024-03-23T12:35:30;98827.31;;;7.58;95.15
9899;BME280;4988;49.238;6.698;2024-03-23T12:37:55;98828.88;;;7.64;95.23
9899;BME280;4988;49.238;6.698;2024-03-23T12:40:21;98828.94;;;7.84;92.63
9899;BME280;4988;49.238;6.698;2024-03-23T12:42:46;98836.59;;;7.92;89.26
9899;BME280;4988;49.238;6.698;2024-03-23T12:45:12;98830.06;;;8.01;87.72
9899;BME280;4988;49.238;6.698;2024-03-23T12:47:37;98833.22;;;8.09;89.39
9899;BME280;4988;49.238;6.698;2024-03-23T12:50:03;98839.16;;;7.94;83.67
9899;BME280;4988;49.238;6.698;2024-03-23T12:52:28;98837.00;;;7.59;83.63
9899;BME280;4988;49.238;6.698;2024-03-23T12:54:57;98834.41;;;7.34;83.76
9899;BME280;4988;49.238;6.698;2024-03-23T12:57:23;98836.78;;;7.42;85.83
9899;BME280;4988;49.238;6.698;2024-03-23T12:59:49;98826.56;;;7.54;87.49
9899;BME280;4988;49.238;6.698;2024-03-23T13:02:17;98818.13;;;7.67;87.76
9899;BME280;4988;49.238;6.698;2024-03-23T13:04:43;98810.50;;;7.59;84.88
9899;BME280;4988;49.238;6.698;2024-03-23T13:07:09;98813.91;;;7.63;85.92
9899;BME280;4988;49.238;6.698;2024-03-23T13:09:34;98794.06;;;7.73;85.34
9899;BME280;4988;49.238;6.698;2024-03-23T13:11:59;98797.25;;;7.81;86.69
9899;BME280;4988;49.238;6.698;2024-03-23T13:14:24;98786.28;;;7.68;83.22
9899;BME280;4988;49.238;6.698;2024-03-23T13:16:50;98771.75;;;7.56;82.13
9899;BME280;4988;49.238;6.698;2024-03-23T13:19:15;98773.50;;;7.80;83.63
9899;BME280;4988;49.238;6.698;2024-03-23T13:21:40;98774.72;;;8.14;84.70
9899;BME280;4988;49.238;6.698;2024-03-23T13:24:09;98749.22;;;8.32;77.99
9899;BME280;4988;49.238;6.698;2024-03-23T13:26:34;98750.47;;;8.23;75.83
9899;BME280;4988;49.238;6.698;2024-03-23T13:28:59;98750.69;;;8.39;78.43
9899;BME280;4988;49.238;6.698;2024-03-23T13:31:25;98733.78;;;8.62;74.78
9899;BME280;4988;49.238;6.698;2024-03-23T13:33:50;98722.41;;;8.98;77.33
9899;BME280;4988;49.238;6.698;2024-03-23T13:36:15;98725.13;;;9.16;74.52
9899;BME280;4988;49.238;6.698;2024-03-23T13:38:40;98719.25;;;9.28;74.14
9899;BME280;4988;49.238;6.698;2024-03-23T13:41:06;98706.16;;;9.43;71.62
9899;BME280;4988;49.238;6.698;2024-03-23T13:43:32;98707.44;;;9.53;70.44
9899;BME280;4988;49.238;6.698;2024-03-23T13:45:58;98711.91;;;9.33;66.34
9899;BME280;4988;49.238;6.698;2024-03-23T13:48:26;98763.25;;;9.15;68.96
9899;BME280;4988;49.238;6.698;2024-03-23T13:50:59;98835.16;;;7.37;89.18
9899;BME280;4988;49.238;6.698;2024-03-23T13:53:24;98802.72;;;6.07;100.00
9899;BME280;4988;49.238;6.698;2024-03-23T13:55:51;98800.19;;;5.76;100.00
9899;BME280;4988;49.238;6.698;2024-03-23T13:58:16;98805.19;;;5.85;100.00
9899;BME280;4988;49.238;6.698;2024-03-23T14:00:42;98795.97;;;5.97;100.00
9899;BME280;4988;49.238;6.698;2024-03-23T14:06:32;98782.50;;;6.32;100.00
9899;BME280;4988;49.238;6.698;2024-03-23T14:08:57;98780.63;;;6.35;100.00
9899;BME280;4988;49.238;6.698;2024-03-23T14:11:22;98777.47;;;6.51;100.00
9899;BME280;4988;49.238;6.698;2024-03-23T14:13:48;98779.75;;;6.60;100.00
9899;BME280;4988;49.238;6.698;2024-03-23T14:16:13;98772.84;;;6.81;100.00
9899;BME280;4988;49.238;6.698;2024-03-23T14:18:38;98775.28;;;7.11;100.00
9899;BME280;4988;49.238;6.698;2024-03-23T14:21:04;98778.31;;;7.00;100.00
9899;BME280;4988;49.238;6.698;2024-03-23T14:23:31;98768.00;;;7.16;99.36